createdAt,value
2022-10-20T00:01:45.042Z,18.17
2022-10-20T00:04:12.797Z,16.33
2022-10-20T00:06:40.588Z,18.27
2022-10-20T00:09:08.368Z,16.97
2022-10-20T00:11:36.566Z,16.63
2022-10-20T00:14:06.324Z,20.23
2022-10-20T00:16:37.984Z,15.13
2022-10-20T00:19:06.632Z,14.53
2022-10-20T00:21:34.508Z,22.73
2022-10-20T00:24:03.289Z,18.37
2022-10-20T00:26:32.229Z,14.17
2022-10-20T00:29:02.211Z,16.70
2022-10-20T00:31:32.060Z,17.33
2022-10-20T00:33:59.749Z,15.07
2022-10-20T00:36:27.452Z,12.27
2022-10-20T00:38:59.571Z,10.57
2022-10-20T00:41:27.595Z,13.57
2022-10-20T00:43:57.574Z,13.93
2022-10-20T00:46:29.231Z,12.53
2022-10-20T00:49:01.777Z,12.50
2022-10-20T00:51:33.412Z,14.37
2022-10-20T00:54:06.623Z,23.47
2022-10-20T00:56:34.907Z,14.20
2022-10-20T00:59:04.736Z,11.67
2022-10-20T01:01:33.176Z,9.63
2022-10-20T01:04:02.672Z,12.63
2022-10-20T01:06:30.469Z,11.17
2022-10-20T01:08:59.577Z,13.40
2022-10-20T01:11:35.595Z,14.07
2022-10-20T01:14:20.249Z,9.83
2022-10-20T01:16:58.883Z,15.90
2022-10-20T01:19:53.580Z,9.70
2022-10-20T01:22:38.363Z,12.00
2022-10-20T01:25:19.768Z,13.93
2022-10-20T01:27:53.003Z,12.13
2022-10-20T01:30:22.965Z,15.73
2022-10-20T01:33:10.623Z,11.17
2022-10-20T01:35:48.894Z,10.13
2022-10-20T01:38:24.364Z,11.70
2022-10-20T01:40:57.751Z,9.43
2022-10-20T01:43:32.251Z,15.13
2022-10-20T01:46:02.222Z,9.57
2022-10-20T01:48:34.391Z,8.43
2022-10-20T01:51:03.955Z,9.90
2022-10-20T01:53:31.846Z,10.67
2022-10-20T01:56:01.848Z,15.23
2022-10-20T01:58:56.020Z,12.27
2022-10-20T02:01:38.667Z,11.17
2022-10-20T02:04:09.482Z,9.23
2022-10-20T02:06:46.274Z,9.77
2022-10-20T02:09:19.553Z,9.40
2022-10-20T02:11:54.161Z,9.40
2022-10-20T02:14:24.592Z,10.50
2022-10-20T02:16:56.410Z,10.97
2022-10-20T02:19:26.760Z,8.30
2022-10-20T02:21:57.329Z,12.03
2022-10-20T02:24:29.927Z,14.67
2022-10-20T02:27:01.578Z,11.13
2022-10-20T02:29:36.639Z,8.90
2022-10-20T02:32:04.491Z,10.70
2022-10-20T02:34:32.229Z,7.93
2022-10-20T02:37:00.209Z,8.93
2022-10-20T02:39:28.253Z,9.43
2022-10-20T02:41:55.949Z,10.60
2022-10-20T02:44:23.900Z,9.27
2022-10-20T02:46:53.034Z,7.60
2022-10-20T02:49:21.529Z,10.70
2022-10-20T02:51:49.640Z,9.00
2022-10-20T02:54:17.502Z,8.17
2022-10-20T02:56:45.218Z,6.60
2022-10-20T02:59:14.520Z,13.43
2022-10-20T03:01:42.862Z,7.67
2022-10-20T03:04:12.622Z,11.03
2022-10-20T03:06:40.630Z,9.07
2022-10-20T03:09:08.636Z,7.50
2022-10-20T03:11:36.310Z,10.90
2022-10-20T03:14:04.461Z,9.53
2022-10-20T03:16:32.219Z,9.60
2022-10-20T03:19:03.443Z,8.40
2022-10-20T03:21:35.938Z,8.27
2022-10-20T03:24:03.774Z,8.83
2022-10-20T03:26:31.565Z,8.57
2022-10-20T03:28:59.280Z,9.27
2022-10-20T03:31:27.367Z,7.03
2022-10-20T03:33:55.138Z,7.93
2022-10-20T03:36:22.866Z,7.93
2022-10-20T03:38:51.862Z,6.27
2022-10-20T03:41:19.551Z,14.33
2022-10-20T03:43:47.254Z,7.00
2022-10-20T03:46:14.954Z,6.27
2022-10-20T03:48:42.993Z,6.73
2022-10-20T03:51:14.300Z,6.70
2022-10-20T03:53:42.307Z,12.97
2022-10-20T03:56:16.535Z,8.37
2022-10-20T03:58:44.274Z,10.23
2022-10-20T04:01:15.714Z,9.03
2022-10-20T04:03:43.743Z,12.53
2022-10-20T04:06:12.584Z,7.50
2022-10-20T04:08:40.473Z,8.83
2022-10-20T04:11:08.780Z,8.30
2022-10-20T04:13:38.240Z,5.90
2022-10-20T04:16:06.590Z,7.83
2022-10-20T04:18:34.462Z,7.70
2022-10-20T04:21:02.175Z,10.03
2022-10-20T04:23:29.907Z,9.43
2022-10-20T04:25:57.630Z,11.97
2022-10-20T04:28:25.399Z,6.30
2022-10-20T04:30:54.456Z,7.30
2022-10-20T04:33:22.152Z,10.67
2022-10-20T04:38:18.473Z,8.70
2022-10-20T04:40:46.178Z,7.80
2022-10-20T04:43:13.931Z,7.83
2022-10-20T04:45:41.627Z,9.13
2022-10-20T04:48:11.058Z,7.40
2022-10-20T04:50:38.752Z,10.67
2022-10-20T04:53:09.815Z,10.20
2022-10-20T04:55:37.679Z,7.03
2022-10-20T04:58:05.459Z,6.37
2022-10-20T05:00:33.350Z,9.17
2022-10-20T05:03:01.346Z,8.57
2022-10-20T05:05:30.723Z,6.37
2022-10-20T05:07:58.529Z,7.83
2022-10-20T05:10:26.689Z,12.53
2022-10-20T05:12:54.762Z,8.50
2022-10-20T05:15:22.466Z,9.47
2022-10-20T05:17:50.198Z,6.00
2022-10-20T05:20:18.066Z,9.27
2022-10-20T05:22:47.142Z,6.13
2022-10-20T05:28:02.541Z,7.27
2022-10-20T05:30:30.287Z,8.47
2022-10-20T05:32:58.063Z,9.07
2022-10-20T05:35:25.846Z,11.27
2022-10-20T05:37:54.895Z,11.67
2022-10-20T05:40:22.738Z,8.43
2022-10-20T05:42:50.976Z,9.70
2022-10-20T05:45:18.720Z,7.77
2022-10-20T05:47:46.450Z,7.73
2022-10-20T05:50:14.104Z,9.90
2022-10-20T05:52:41.812Z,8.83
2022-10-20T05:55:28.270Z,8.60
2022-10-20T05:57:58.510Z,9.03
2022-10-20T06:00:31.030Z,12.83
2022-10-20T06:02:59.511Z,7.43
2022-10-20T06:05:27.610Z,9.07
2022-10-20T06:07:55.852Z,9.13
2022-10-20T06:10:24.720Z,10.97
2022-10-20T06:12:52.982Z,14.20
2022-10-20T06:15:22.559Z,13.57
2022-10-20T06:17:50.727Z,11.60
2022-10-20T06:20:19.730Z,11.40
2022-10-20T06:22:48.141Z,7.97
2022-10-20T06:25:16.647Z,8.70
2022-10-20T06:27:44.951Z,7.23
2022-10-20T06:30:13.138Z,8.87
2022-10-20T06:32:42.617Z,13.17
2022-10-20T06:35:10.600Z,7.27
2022-10-20T06:37:38.747Z,10.47
2022-10-20T06:40:07.862Z,11.73
2022-10-20T06:42:36.209Z,9.10
2022-10-20T06:45:04.965Z,9.00
2022-10-20T06:47:33.473Z,9.03
2022-10-20T06:50:03.025Z,10.83
2022-10-20T06:52:31.111Z,8.50
2022-10-20T06:54:59.178Z,8.20
2022-10-20T06:57:27.723Z,8.33
2022-10-20T06:59:56.219Z,10.57
2022-10-20T07:02:25.329Z,9.80
2022-10-20T07:08:56.349Z,9.77
2022-10-20T07:15:12.438Z,8.10
2022-10-20T07:18:08.172Z,8.33
2022-10-20T07:21:20.533Z,9.47
2022-10-20T07:27:03.579Z,13.97
2022-10-20T07:29:42.971Z,6.73
2022-10-20T07:32:14.218Z,6.23
2022-10-20T07:34:42.127Z,11.80
2022-10-20T07:37:11.344Z,11.77
2022-10-20T07:39:40.139Z,9.23
2022-10-20T07:42:24.208Z,8.70
2022-10-20T07:44:52.743Z,8.47
2022-10-20T07:47:21.628Z,10.33
2022-10-20T07:49:50.776Z,8.77
2022-10-20T07:52:22.410Z,7.13
2022-10-20T07:55:02.488Z,7.67
2022-10-20T07:57:42.564Z,10.53
2022-10-20T08:00:15.693Z,8.23
2022-10-20T08:06:20.707Z,7.27
2022-10-20T08:15:15.423Z,8.80
2022-10-20T08:17:47.993Z,8.47
2022-10-20T08:21:04.402Z,12.23
2022-10-20T08:23:49.526Z,8.93
2022-10-20T08:26:39.276Z,13.23
2022-10-20T08:29:07.151Z,8.90
2022-10-20T08:34:18.407Z,9.63
2022-10-20T08:36:46.597Z,7.47
2022-10-20T08:39:14.478Z,12.68
2022-10-20T08:42:06.877Z,8.18
2022-10-20T08:44:36.733Z,8.45
2022-10-20T08:47:15.189Z,13.77
2022-10-20T08:50:06.026Z,8.40
2022-10-20T08:52:45.190Z,9.73
2022-10-20T08:55:23.415Z,6.55
2022-10-20T08:57:51.464Z,7.93
2022-10-20T09:00:23.858Z,7.95
2022-10-20T09:03:34.975Z,8.13
2022-10-20T09:06:15.257Z,12.20
2022-10-20T09:11:50.777Z,9.35
2022-10-20T09:14:29.725Z,11.15
2022-10-20T09:17:00.652Z,10.50
2022-10-20T09:19:53.174Z,9.57
2022-10-20T09:22:58.241Z,6.78
2022-10-20T09:25:42.118Z,9.35
2022-10-20T09:29:02.181Z,16.80
2022-10-20T09:34:42.475Z,11.75
2022-10-20T09:37:24.925Z,8.93
2022-10-20T09:40:18.621Z,7.93
2022-10-20T09:43:16.551Z,11.30
2022-10-20T09:46:16.307Z,8.95
2022-10-20T09:48:49.416Z,9.00
2022-10-20T09:51:57.914Z,11.15
2022-10-20T09:54:37.428Z,7.90
2022-10-20T09:57:30.182Z,9.52
2022-10-20T10:00:01.452Z,11.35
2022-10-20T10:03:22.850Z,12.80
2022-10-20T10:06:55.116Z,9.05
2022-10-20T10:09:45.812Z,14.45
2022-10-20T10:12:43.219Z,8.55
2022-10-20T10:15:48.310Z,10.07
2022-10-20T10:18:23.972Z,15.00
2022-10-20T10:21:26.479Z,9.50
2022-10-20T10:23:56.980Z,9.35
2022-10-20T10:26:50.797Z,9.73
2022-10-20T10:29:40.989Z,9.05
2022-10-20T10:32:38.182Z,8.77
2022-10-20T10:38:23.234Z,9.70
2022-10-20T10:41:00.811Z,11.05
2022-10-20T10:43:53.730Z,8.65
2022-10-20T10:46:27.853Z,9.23
2022-10-20T10:49:17.437Z,10.18
2022-10-20T10:51:58.209Z,19.55
2022-10-20T10:55:21.225Z,10.30
2022-10-20T10:58:32.586Z,9.43
2022-10-20T11:01:38.413Z,10.73
2022-10-20T11:04:26.452Z,13.73
2022-10-20T11:07:07.599Z,9.45
2022-10-20T11:10:39.563Z,11.55
2022-10-20T11:13:49.006Z,10.35
2022-10-20T11:16:43.598Z,10.27
2022-10-20T11:19:31.421Z,8.70
2022-10-20T11:22:14.296Z,8.73
2022-10-20T11:25:00.512Z,13.30
2022-10-20T11:27:31.819Z,9.68
2022-10-20T11:30:05.719Z,14.00
2022-10-20T11:32:38.856Z,20.00
2022-10-20T11:35:15.297Z,19.63
2022-10-20T11:37:49.509Z,9.82
2022-10-20T11:40:23.997Z,10.57
2022-10-20T11:43:11.836Z,8.63
2022-10-20T11:57:40.093Z,11.38
2022-10-20T12:00:42.345Z,11.10
2022-10-20T12:03:41.556Z,11.55
2022-10-20T12:06:35.774Z,11.90
2022-10-20T12:09:43.965Z,12.25
2022-10-20T12:12:16.554Z,14.45
2022-10-20T12:14:50.891Z,10.98
2022-10-20T12:17:29.195Z,16.38
2022-10-20T12:20:30.000Z,10.48
2022-10-20T12:22:59.721Z,15.48
2022-10-20T12:25:40.514Z,16.95
2022-10-20T12:28:33.635Z,12.18
2022-10-20T12:31:04.632Z,17.90
2022-10-20T12:33:38.898Z,11.45
2022-10-20T12:36:33.411Z,11.25
2022-10-20T12:39:20.034Z,14.02
2022-10-20T12:41:58.495Z,10.82
2022-10-20T12:44:28.949Z,15.63
2022-10-20T12:47:04.288Z,13.77
2022-10-20T12:49:34.504Z,13.05
2022-10-20T12:52:03.521Z,13.05
2022-10-20T12:54:36.123Z,13.55
2022-10-20T12:57:06.857Z,16.88
2022-10-20T12:59:41.563Z,11.88
2022-10-20T13:02:48.033Z,14.95
2022-10-20T13:05:42.438Z,12.85
2022-10-20T13:08:32.460Z,15.88
2022-10-20T13:11:40.766Z,15.25
2022-10-20T13:14:36.209Z,11.65
2022-10-20T13:17:13.738Z,16.55
2022-10-20T13:19:48.670Z,13.13
2022-10-20T13:22:42.921Z,13.13
2022-10-20T13:25:30.389Z,14.10
2022-10-20T13:28:18.223Z,13.20
2022-10-20T13:31:01.778Z,15.45
2022-10-20T13:34:02.022Z,15.45
2022-10-20T13:36:49.939Z,16.58
2022-10-20T13:39:28.296Z,13.65
2022-10-20T13:42:06.173Z,13.10
2022-10-20T13:44:41.396Z,16.70
2022-10-20T13:47:28.884Z,14.93
2022-10-20T13:50:05.545Z,15.73
2022-10-20T13:52:39.765Z,16.95
2022-10-20T13:55:15.800Z,13.73
2022-10-20T13:57:55.130Z,17.75
2022-10-20T14:00:25.864Z,16.27
2022-10-20T14:03:00.292Z,14.48
2022-10-20T14:05:29.848Z,17.15
2022-10-20T14:08:04.624Z,13.88
2022-10-20T14:10:43.624Z,16.23
2022-10-20T14:13:15.590Z,19.85
2022-10-20T14:15:48.344Z,14.50
2022-10-20T14:18:25.136Z,14.65
2022-10-20T14:20:59.987Z,14.15
2022-10-20T14:23:34.240Z,19.25
2022-10-20T14:26:03.821Z,16.33
2022-10-20T14:28:34.316Z,16.60
2022-10-20T14:31:03.078Z,21.10
2022-10-20T14:33:31.464Z,15.55
2022-10-20T14:36:02.578Z,14.77
2022-10-20T14:38:37.762Z,16.85
2022-10-20T14:41:07.559Z,15.77
2022-10-20T14:43:39.708Z,16.73
2022-10-20T14:46:10.096Z,18.25
2022-10-20T14:48:42.205Z,18.92
2022-10-20T14:51:34.163Z,19.85
2022-10-20T14:57:32.690Z,17.67
2022-10-20T15:00:03.554Z,16.67
2022-10-20T15:02:35.232Z,21.35
2022-10-20T15:05:21.915Z,18.75
2022-10-20T15:07:49.659Z,18.40
2022-10-20T15:10:22.442Z,24.45
2022-10-20T15:12:53.058Z,20.90
2022-10-20T15:15:23.807Z,26.35
2022-10-20T15:17:53.937Z,23.77
2022-10-20T15:20:37.393Z,22.75
2022-10-20T15:23:08.652Z,20.45
2022-10-20T15:25:43.477Z,16.45
2022-10-20T15:28:35.215Z,23.40
2022-10-20T15:31:05.780Z,20.83
2022-10-20T15:33:33.618Z,23.08
2022-10-20T15:36:01.841Z,18.77
2022-10-20T15:38:29.753Z,21.33
2022-10-20T15:43:33.989Z,22.20
2022-10-20T15:46:01.698Z,22.20
2022-10-20T15:48:29.426Z,18.00
2022-10-20T15:50:58.967Z,20.13
2022-10-20T15:53:26.648Z,22.80
2022-10-20T15:55:54.448Z,21.65
2022-10-20T15:58:23.544Z,18.67
2022-10-20T16:00:51.343Z,20.15
2022-10-20T16:03:19.778Z,19.67
2022-10-20T16:05:47.799Z,25.88
2022-10-20T16:10:48.715Z,19.95
2022-10-20T16:13:18.347Z,26.83
2022-10-20T16:15:47.464Z,18.13
2022-10-20T16:18:15.360Z,22.83
2022-10-20T16:20:43.108Z,46.88
2022-10-20T16:23:10.830Z,27.65
2022-10-20T16:25:40.242Z,28.50
2022-10-20T16:28:08.135Z,23.63
2022-10-20T16:30:35.838Z,27.50
2022-10-20T16:33:05.010Z,23.40
2022-10-20T16:35:32.973Z,23.40
2022-10-20T16:38:01.036Z,26.50
2022-10-20T16:40:28.921Z,22.05
2022-10-20T16:42:56.594Z,23.90
2022-10-20T16:45:24.321Z,21.83
2022-10-20T16:47:52.015Z,23.00
2022-10-20T16:50:21.475Z,23.75
2022-10-20T16:52:49.273Z,27.08
2022-10-20T16:55:17.316Z,19.65
2022-10-20T16:57:45.166Z,24.08
2022-10-20T17:00:14.160Z,23.73
2022-10-20T17:02:44.159Z,24.80
2022-10-20T17:05:11.963Z,24.05
2022-10-20T17:07:41.076Z,22.08
2022-10-20T17:10:09.447Z,21.83
2022-10-20T17:12:37.307Z,21.23
2022-10-20T17:15:05.854Z,19.00
2022-10-20T17:17:33.577Z,21.95
2022-10-20T17:20:01.287Z,22.98
2022-10-20T17:22:28.994Z,21.88
2022-10-20T17:24:58.003Z,23.38
2022-10-20T17:27:25.718Z,24.52
2022-10-20T17:29:53.429Z,19.98
2022-10-20T17:32:21.065Z,22.70
2022-10-20T17:34:48.808Z,18.35
2022-10-20T17:37:16.479Z,19.20
2022-10-20T17:39:44.240Z,20.50
2022-10-20T17:42:13.266Z,22.25
2022-10-20T17:44:40.937Z,21.08
2022-10-20T17:47:08.598Z,22.58
2022-10-20T17:49:36.307Z,21.73
2022-10-20T17:52:04.059Z,23.15
2022-10-20T17:54:31.743Z,22.30
2022-10-20T17:56:59.427Z,24.60
2022-10-20T17:59:34.750Z,20.52
2022-10-20T18:02:11.444Z,22.75
2022-10-20T18:04:40.163Z,25.13
2022-10-20T18:07:09.466Z,26.08
2022-10-20T18:09:37.438Z,20.58
2022-10-20T18:12:05.826Z,22.45
2022-10-20T18:14:35.194Z,20.70
2022-10-20T18:17:03.513Z,25.17
2022-10-20T18:19:31.783Z,26.75
2022-10-20T18:21:59.866Z,26.95
2022-10-20T18:24:28.228Z,22.33
2022-10-20T18:26:56.142Z,20.85
2022-10-20T18:29:25.863Z,23.60
2022-10-20T18:31:56.237Z,23.05
2022-10-20T18:34:24.465Z,23.15
2022-10-20T18:36:55.355Z,23.13
2022-10-20T18:39:23.552Z,24.00
2022-10-20T18:41:52.661Z,26.45
2022-10-20T18:44:21.832Z,22.90
2022-10-20T18:46:51.252Z,21.23
2022-10-20T18:49:22.079Z,24.83
2022-10-20T18:51:50.277Z,25.70
2022-10-20T18:54:19.321Z,26.85
2022-10-20T18:56:47.550Z,25.42
2022-10-20T18:59:16.224Z,24.00
2022-10-20T19:01:45.290Z,24.25
2022-10-20T19:04:14.647Z,24.58
2022-10-20T19:06:45.400Z,25.67
2022-10-20T19:09:16.837Z,25.17
2022-10-20T19:11:45.998Z,31.13
2022-10-20T19:14:17.045Z,30.25
2022-10-20T19:16:48.763Z,25.08
2022-10-20T19:19:17.722Z,26.58
2022-10-20T19:21:47.383Z,27.77
2022-10-20T19:24:17.879Z,28.95
2022-10-20T19:26:57.158Z,25.13
2022-10-20T19:29:31.959Z,27.25
2022-10-20T19:32:04.468Z,32.08
2022-10-20T19:34:36.500Z,24.60
2022-10-20T19:37:07.343Z,22.83
2022-10-20T19:39:38.151Z,25.77
2022-10-20T19:42:08.679Z,23.10
2022-10-20T19:44:37.037Z,30.30
2022-10-20T19:47:06.068Z,25.63
2022-10-20T19:49:34.317Z,24.40
2022-10-20T19:52:02.822Z,24.15
2022-10-20T19:54:32.600Z,24.30
2022-10-20T19:57:01.007Z,25.02
2022-10-20T19:59:28.888Z,27.65
2022-10-20T20:01:56.878Z,25.95
2022-10-20T20:04:24.999Z,30.88
2022-10-20T20:06:57.228Z,29.30
2022-10-20T20:09:31.380Z,28.30
2022-10-20T20:12:01.950Z,26.77
2022-10-20T20:17:27.941Z,24.23
2022-10-20T20:19:56.219Z,22.98
2022-10-20T20:22:24.581Z,29.05
2022-10-20T20:24:52.827Z,25.65
2022-10-20T20:27:22.787Z,25.55
2022-10-20T20:29:51.387Z,26.50
2022-10-20T20:32:20.123Z,22.33
2022-10-20T20:34:57.901Z,24.92
2022-10-20T20:37:26.436Z,32.95
2022-10-20T20:39:54.627Z,24.98
2022-10-20T20:42:29.453Z,28.38
2022-10-20T20:45:00.141Z,28.05
2022-10-20T20:47:28.611Z,26.63
2022-10-20T20:50:03.912Z,23.25
2022-10-20T20:52:32.583Z,26.27
2022-10-20T20:55:00.693Z,22.77
2022-10-20T20:57:30.687Z,23.30
2022-10-20T20:59:59.361Z,26.45
2022-10-20T21:02:27.753Z,28.20
2022-10-20T21:04:56.063Z,26.08
2022-10-20T21:07:24.339Z,23.10
2022-10-20T21:09:52.538Z,27.55
2022-10-20T21:12:20.409Z,26.63
2022-10-20T21:14:49.961Z,29.23
2022-10-20T21:17:18.661Z,23.45
2022-10-20T21:19:47.659Z,26.77
2022-10-20T21:22:15.986Z,29.27
2022-10-20T21:25:10.313Z,28.35
2022-10-20T21:33:53.505Z,25.45
2022-10-20T21:36:23.489Z,25.15
2022-10-20T21:38:52.261Z,24.83
2022-10-20T21:41:21.730Z,22.25
2022-10-20T21:43:51.680Z,25.17
2022-10-20T21:46:22.629Z,25.10
2022-10-20T21:48:54.366Z,24.48
2022-10-20T21:51:24.266Z,21.55
2022-10-20T21:53:56.831Z,22.67
2022-10-20T21:56:25.452Z,21.35
2022-10-20T21:58:54.661Z,20.45
2022-10-20T22:01:26.081Z,21.35
2022-10-20T22:03:55.816Z,20.75
2022-10-20T22:06:28.467Z,21.30
2022-10-20T22:08:58.106Z,22.35
2022-10-20T22:11:27.921Z,21.70
2022-10-20T22:13:56.596Z,25.48
2022-10-20T22:16:26.783Z,18.38
2022-10-20T22:19:01.283Z,23.15
2022-10-20T22:21:30.571Z,22.13
2022-10-20T22:24:00.385Z,20.45
2022-10-20T22:26:29.077Z,20.27
2022-10-20T22:28:58.284Z,24.02
2022-10-20T22:31:27.638Z,21.33
2022-10-20T22:33:57.872Z,20.40
2022-10-20T22:36:29.038Z,20.00
2022-10-20T22:38:57.606Z,18.67
2022-10-20T22:41:26.066Z,23.67
2022-10-20T22:43:54.312Z,20.27
2022-10-20T22:46:22.344Z,17.90
2022-10-20T22:48:50.545Z,28.05
2022-10-20T22:51:19.001Z,24.00
2022-10-20T22:53:48.645Z,20.25
2022-10-20T22:56:20.267Z,17.95
2022-10-20T22:58:49.098Z,25.25
2022-10-20T23:01:20.235Z,23.67
2022-10-20T23:03:48.863Z,17.48
2022-10-20T23:06:19.238Z,22.30
2022-10-20T23:08:51.494Z,19.02
2022-10-20T23:11:21.370Z,19.08
2022-10-20T23:13:50.939Z,20.77
2022-10-20T23:16:20.000Z,18.08
2022-10-20T23:18:48.565Z,19.60
2022-10-20T23:21:16.965Z,18.15
2022-10-20T23:23:46.530Z,20.15
2022-10-20T23:26:15.973Z,19.25
2022-10-20T23:28:44.156Z,20.65
2022-10-20T23:31:14.492Z,24.70
2022-10-20T23:33:45.022Z,20.23
2022-10-20T23:36:14.461Z,22.50
2022-10-20T23:38:42.858Z,19.27
2022-10-20T23:41:11.656Z,23.00
2022-10-20T23:43:41.498Z,22.95
2022-10-20T23:46:12.082Z,20.60
2022-10-20T23:48:41.077Z,20.02
2022-10-20T23:51:09.444Z,15.52
2022-10-20T23:53:37.905Z,17.35
2022-10-20T23:56:06.618Z,13.10
2022-10-20T23:58:34.729Z,13.70
